Time;durP1;ratioP1;P1;durP2;ratioP2;P2;SDS_P1;SDS_P2;PMS_P1;PMS_P2;Temp;Humidity;BMP_temperature;BMP_pressure;BME280_temperature;BME280_humidity;BME280_pressure;Samples;Min_cycle;Max_cycle;Signal;HPM_P1;HPM_P2
2021/08/19 00:02:23;;;;;;;273.05;146.55;;;;;;;;;;5262996;27;20045;-85
2021/08/19 00:04:52;;;;;;;278.00;146.50;;;;;;;;;;5267431;27;20022;-86
2021/08/19 00:07:21;;;;;;;278.67;150.00;;;;;;;;;;5269819;27;20072;-85
2021/08/19 00:09:49;;;;;;;269.80;149.85;;;;;;;;;;5248255;27;20053;-86
2021/08/19 00:12:18;;;;;;;271.30;147.15;;;;;;;;;;5267954;27;20112;-85
2021/08/19 00:14:46;;;;;;;278.02;139.50;;;;;;;;;;5247953;27;20403;-85
2021/08/19 00:17:15;;;;;;;279.58;139.48;;;;;;;;;;5268336;27;20032;-86
2021/08/19 00:19:43;;;;;;;271.37;138.25;;;;;;;;;;5269105;27;20022;-86
2021/08/19 00:22:12;;;;;;;305.83;168.50;;;;;;;;;;5247222;27;20088;-86
2021/08/19 00:24:40;;;;;;;301.85;167.68;;;;;;;;;;5267855;27;20018;-86
2021/08/19 00:27:09;;;;;;;296.48;165.68;;;;;;;;;;5266697;27;20076;-86
2021/08/19 00:29:37;;;;;;;311.87;171.10;;;;;;;;;;5249272;27;20240;-86
2021/08/19 00:32:06;;;;;;;307.30;163.25;;;;;;;;;;5265892;27;20341;-87
2021/08/19 00:34:34;;;;;;;315.40;162.93;;;;;;;;;;5249493;27;20068;-85
2021/08/19 00:37:03;;;;;;;314.63;161.43;;;;;;;;;;5266299;27;20431;-86
2021/08/19 00:39:31;;;;;;;231.38;136.52;;;;;;;;;;5266876;27;20062;-87
2021/08/19 00:42:00;;;;;;;227.65;141.20;;;;;;;;;;5265712;27;20333;-87
2021/08/19 00:44:28;;;;;;;264.88;145.30;;;;;;;;;;5267650;27;20022;-86
2021/08/19 00:46:57;;;;;;;252.18;136.82;;;;;;;;;;5265474;27;20085;-87
2021/08/19 00:49:26;;;;;;;260.23;135.73;;;;;;;;;;5268169;27;20025;-86
2021/08/19 00:51:55;;;;;;;252.32;131.80;;;;;;;;;;5265633;27;20074;-86
2021/08/19 00:54:25;;;;;;;256.75;130.85;;;;;;;;;;5268562;27;20032;-87
2021/08/19 00:56:58;;;;;;;259.15;128.43;;;;;;;;;;5268019;27;20021;-86
2021/08/19 00:59:27;;;;;;;245.32;128.85;;;;;;;;;;5264320;27;20369;-86
2021/08/19 01:01:56;;;;;;;248.95;127.35;;;;;;;;;;5264876;27;20032;-86
2021/08/19 01:04:25;;;;;;;247.82;132.27;;;;;;;;;;5261649;27;20044;-85
2021/08/19 01:06:54;;;;;;;250.07;135.88;;;;;;;;;;5268286;27;20028;-86
2021/08/19 01:09:23;;;;;;;286.00;164.62;;;;;;;;;;5266423;27;20045;-86
2021/08/19 01:11:51;;;;;;;292.45;149.50;;;;;;;;;;5247823;27;20317;-87
2021/08/19 01:14:20;;;;;;;279.42;143.95;;;;;;;;;;5268594;27;20457;-86
2021/08/19 01:16:49;;;;;;;226.80;134.25;;;;;;;;;;5269342;27;20025;-86
2021/08/19 01:19:22;;;;;;;228.20;134.50;;;;;;;;;;5249467;27;20394;-85
2021/08/19 01:21:54;;;;;;;236.68;135.05;;;;;;;;;;5269550;27;20104;-86
2021/08/19 01:24:22;;;;;;;229.87;131.68;;;;;;;;;;5269576;27;20014;-85
2021/08/19 01:26:53;;;;;;;231.25;129.65;;;;;;;;;;5270598;27;20083;-86
2021/08/19 01:29:22;;;;;;;239.70;125.65;;;;;;;;;;5269944;27;20474;-86
2021/08/19 01:32:16;;;;;;;238.45;125.65;;;;;;;;;;5268850;27;20025;-87
2021/08/19 01:34:45;;;;;;;219.90;124.07;;;;;;;;;;5268695;27;20067;-86
2021/08/19 01:37:14;;;;;;;214.63;124.20;;;;;;;;;;5268973;27;20033;-85
2021/08/19 01:39:42;;;;;;;213.60;131.02;;;;;;;;;;5269770;27;20045;-85
2021/08/19 01:42:11;;;;;;;213.45;126.05;;;;;;;;;;5269311;27;20034;-86
2021/08/19 01:44:40;;;;;;;218.15;121.28;;;;;;;;;;5271726;27;20472;-87
2021/08/19 01:47:11;;;;;;;202.45;120.45;;;;;;;;;;5232552;27;20057;-86
2021/08/19 01:49:41;;;;;;;197.60;121.35;;;;;;;;;;5267383;27;20022;-86
2021/08/19 01:52:11;;;;;;;210.93;123.47;;;;;;;;;;5267650;27;20478;-86
2021/08/19 01:54:39;;;;;;;197.65;118.13;;;;;;;;;;5265145;27;20040;-86
2021/08/19 01:57:08;;;;;;;197.00;117.57;;;;;;;;;;5265980;27;20060;-89
2021/08/19 01:59:36;;;;;;;194.87;118.68;;;;;;;;;;5264327;27;20015;-86
2021/08/19 02:02:05;;;;;;;204.95;124.57;;;;;;;;;;5267124;27;20014;-87
2021/08/19 02:04:33;;;;;;;198.43;123.53;;;;;;;;;;5270511;27;20017;-85
2021/08/19 02:07:02;;;;;;;205.30;126.45;;;;;;;;;;5268820;27;20358;-86
2021/08/19 02:09:30;;;;;;;277.65;152.73;;;;;;;;;;5246917;27;20057;-86
2021/08/19 02:11:59;;;;;;;276.12;153.45;;;;;;;;;;5267964;27;20139;-86
2021/08/19 02:14:27;;;;;;;266.83;151.95;;;;;;;;;;5270116;27;20052;-85
2021/08/19 02:16:55;;;;;;;265.95;151.32;;;;;;;;;;5271782;27;20018;-86
2021/08/19 02:19:24;;;;;;;264.25;149.60;;;;;;;;;;5266066;27;20041;-85
2021/08/19 02:21:52;;;;;;;253.07;145.85;;;;;;;;;;5267365;27;20498;-85
2021/08/19 02:24:21;;;;;;;252.85;146.60;;;;;;;;;;5266303;27;20509;-86
2021/08/19 02:26:49;;;;;;;258.75;145.45;;;;;;;;;;5264933;27;20064;-86
2021/08/19 02:29:18;;;;;;;253.55;139.05;;;;;;;;;;5265563;27;20088;-86
2021/08/19 02:31:46;;;;;;;196.95;124.38;;;;;;;;;;5266200;27;20515;-85
2021/08/19 02:34:14;;;;;;;202.25;124.28;;;;;;;;;;5265449;27;20043;-86
2021/08/19 02:36:43;;;;;;;192.25;123.93;;;;;;;;;;5266765;27;20048;-86
2021/08/19 02:39:11;;;;;;;213.15;125.93;;;;;;;;;;5245332;27;20021;-86
2021/08/19 02:41:40;;;;;;;212.30;123.47;;;;;;;;;;5269062;27;20072;-86
2021/08/19 02:44:09;;;;;;;218.45;116.75;;;;;;;;;;5268251;27;20510;-85
2021/08/19 02:46:37;;;;;;;218.80;117.60;;;;;;;;;;5267074;27;20059;-86
2021/08/19 02:49:06;;;;;;;222.18;115.25;;;;;;;;;;5266724;27;20379;-86
2021/08/19 02:51:34;;;;;;;211.18;109.57;;;;;;;;;;5265278;27;20041;-85
2021/08/19 02:54:03;;;;;;;203.95;105.03;;;;;;;;;;5268247;27;20021;-85
2021/08/19 02:56:31;;;;;;;241.65;129.60;;;;;;;;;;5268035;27;20045;-86
2021/08/19 02:59:00;;;;;;;243.90;130.25;;;;;;;;;;5266813;27;20048;-86
2021/08/19 03:01:28;;;;;;;239.77;129.38;;;;;;;;;;5267672;27;20345;-86
2021/08/19 03:03:57;;;;;;;214.10;107.07;;;;;;;;;;5266616;27;20052;-85
2021/08/19 03:06:25;;;;;;;205.25;106.75;;;;;;;;;;5267384;27;20060;-85
2021/08/19 03:08:53;;;;;;;206.85;119.07;;;;;;;;;;5266829;27;20018;-86
2021/08/19 06:49:27;;;;;;;212.02;114.22;;;;;;;;;;5249001;27;20029;-85
2021/08/19 06:51:55;;;;;;;220.82;116.68;;;;;;;;;;5264632;27;20083;-85
2021/08/19 06:54:26;;;;;;;184.05;106.60;;;;;;;;;;5271499;27;20049;-86
2021/08/19 06:56:54;;;;;;;171.70;104.72;;;;;;;;;;5274377;27;20028;-85
2021/08/19 06:59:23;;;;;;;170.62;100.75;;;;;;;;;;5291832;27;20025;-85
2021/08/19 07:01:51;;;;;;;174.77;101.90;;;;;;;;;;5293600;27;20065;-86
2021/08/19 07:04:19;;;;;;;162.82;96.07;;;;;;;;;;5296666;27;20100;-84
2021/08/19 07:06:48;;;;;;;155.55;92.97;;;;;;;;;;5291549;27;20052;-85
2021/08/19 07:09:16;;;;;;;182.30;99.22;;;;;;;;;;5295521;27;20013;-85
2021/08/19 07:11:45;;;;;;;170.23;88.62;;;;;;;;;;5293235;27;20025;-85
2021/08/19 07:14:13;;;;;;;158.60;85.57;;;;;;;;;;5291659;27;20058;-85
2021/08/19 07:16:42;;;;;;;150.12;86.85;;;;;;;;;;5293015;27;20017;-85
2021/08/19 07:19:11;;;;;;;151.45;88.75;;;;;;;;;;5291814;27;20038;-85
2021/08/19 07:21:40;;;;;;;150.82;88.22;;;;;;;;;;5274740;27;20048;-85
2021/08/19 07:24:08;;;;;;;155.00;87.55;;;;;;;;;;5296055;27;20028;-85
2021/08/19 07:26:36;;;;;;;156.48;89.85;;;;;;;;;;5293486;27;20093;-85
2021/08/19 07:29:05;;;;;;;151.35;89.13;;;;;;;;;;5292857;27;20506;-85
2021/08/19 07:31:35;;;;;;;161.75;94.30;;;;;;;;;;5294607;27;20005;-85
2021/08/19 07:34:04;;;;;;;124.60;85.28;;;;;;;;;;5294586;27;20035;-84
2021/08/19 07:36:33;;;;;;;129.98;87.70;;;;;;;;;;5292829;27;20041;-85
2021/08/19 07:39:04;;;;;;;125.45;87.32;;;;;;;;;;5294195;27;20399;-85
2021/08/19 07:41:33;;;;;;;136.60;92.85;;;;;;;;;;5296143;27;20028;-85
2021/08/19 07:44:02;;;;;;;135.57;95.38;;;;;;;;;;5294322;27;20037;-85
2021/08/19 07:46:32;;;;;;;173.32;104.53;;;;;;;;;;5293982;27;20481;-85
2021/08/19 07:49:02;;;;;;;170.68;99.62;;;;;;;;;;5291196;27;20032;-85
2021/08/19 07:51:31;;;;;;;185.50;111.85;;;;;;;;;;5290633;27;20059;-86
2021/08/19 07:53:59;;;;;;;185.90;116.57;;;;;;;;;;5292473;27;20339;-85
2021/08/19 07:56:28;;;;;;;182.55;115.32;;;;;;;;;;5292676;27;20056;-86
2021/08/19 07:58:58;;;;;;;188.80;123.15;;;;;;;;;;5291336;27;20045;-86
2021/08/19 08:01:27;;;;;;;203.05;128.10;;;;;;;;;;5282819;27;20255;-86
2021/08/19 08:03:56;;;;;;;183.90;128.62;;;;;;;;;;5283670;27;20108;-86
2021/08/19 08:06:25;;;;;;;149.90;113.50;;;;;;;;;;5282798;27;20458;-86
2021/08/19 08:08:53;;;;;;;97.15;81.93;;;;;;;;;;5290898;27;20048;-86
2021/08/19 08:11:22;;;;;;;23.30;5.72;;;;;;;;;;5293935;27;20089;-86
2021/08/19 08:13:50;;;;;;;27.35;5.70;;;;;;;;;;5292938;27;20010;-86
2021/08/19 08:16:18;;;;;;;21.40;5.20;;;;;;;;;;5295029;27;20280;-86
2021/08/19 08:18:47;;;;;;;18.85;5.12;;;;;;;;;;5291013;27;20025;-85
2021/08/19 08:21:16;;;;;;;21.05;4.60;;;;;;;;;;5294148;27;20017;-86
2021/08/19 08:23:44;;;;;;;19.48;5.03;;;;;;;;;;5295037;27;20017;-86
2021/08/19 08:26:13;;;;;;;17.70;4.07;;;;;;;;;;5293267;27;20119;-85
2021/08/19 08:28:42;;;;;;;22.08;5.15;;;;;;;;;;5291411;27;20050;-86
2021/08/19 08:31:10;;;;;;;24.25;5.53;;;;;;;;;;5292869;27;20045;-85
2021/08/19 08:33:39;;;;;;;24.60;4.62;;;;;;;;;;5293333;27;20028;-85
2021/08/19 08:36:07;;;;;;;24.55;5.62;;;;;;;;;;5292464;27;20042;-86
2021/08/19 08:38:36;;;;;;;20.50;5.25;;;;;;;;;;5292196;27;20061;-86
2021/08/19 08:41:06;;;;;;;19.12;4.93;;;;;;;;;;5295203;27;20029;-85
2021/08/19 08:43:34;;;;;;;21.27;5.05;;;;;;;;;;5291993;27;20045;-86
2021/08/19 08:46:04;;;;;;;17.55;4.72;;;;;;;;;;5294516;27;20378;-85
2021/08/19 08:48:33;;;;;;;19.83;4.80;;;;;;;;;;5294890;27;20021;-85
2021/08/19 08:51:02;;;;;;;25.77;5.25;;;;;;;;;;5294132;27;20047;-85
2021/08/19 08:53:30;;;;;;;22.52;5.10;;;;;;;;;;5294943;27;20049;-85
2021/08/19 08:56:19;;;;;;;20.48;4.97;;;;;;;;;;5292950;27;20533;-85
2021/08/19 08:58:47;;;;;;;18.65;5.10;;;;;;;;;;5294332;27;20028;-85
2021/08/19 09:01:17;;;;;;;21.08;4.85;;;;;;;;;;5292924;27;20060;-86
2021/08/19 09:03:47;;;;;;;19.33;4.47;;;;;;;;;;5293497;27;20013;-86
2021/08/19 09:06:20;;;;;;;21.65;5.00;;;;;;;;;;5292605;27;20013;-86
2021/08/19 09:08:50;;;;;;;;;;;;;;;;;;5295112;27;20109;-86
2021/08/19 09:11:19;;;;;;;20.95;4.72;;;;;;;;;;5291738;27;20329;-86
2021/08/19 09:13:48;;;;;;;18.62;4.80;;;;;;;;;;5296538;27;20022;-85
2021/08/19 09:16:18;;;;;;;15.35;4.32;;;;;;;;;;5295885;27;20025;-86
2021/08/19 09:18:48;;;;;;;19.20;5.05;;;;;;;;;;5291604;27;20360;-86
2021/08/19 09:21:24;;;;;;;17.37;4.78;;;;;;;;;;5292216;27;20035;-86
2021/08/19 09:24:12;;;;;;;17.83;4.60;;;;;;;;;;5274351;27;20048;-86
2021/08/19 09:26:41;;;;;;;24.60;5.30;;;;;;;;;;5291632;27;20057;-86
2021/08/19 09:29:18;;;;;;;17.92;4.57;;;;;;;;;;5291284;27;20033;-86
2021/08/19 09:31:48;;;;;;;22.13;4.70;;;;;;;;;;5295106;27;20034;-86
2021/08/19 09:34:17;;;;;;;14.77;4.68;;;;;;;;;;5293901;27;20051;-86
2021/08/19 09:36:46;;;;;;;20.65;4.72;;;;;;;;;;5292599;27;20813;-86
2021/08/19 09:39:19;;;;;;;16.87;4.65;;;;;;;;;;5292316;27;20071;-86
2021/08/19 09:41:54;;;;;;;15.35;4.32;;;;;;;;;;5294429;27;20013;-86
2021/08/19 09:44:43;;;;;;;15.38;4.05;;;;;;;;;;5293264;27;20050;-86
2021/08/19 09:47:29;;;;;;;17.75;4.60;;;;;;;;;;5292365;27;20008;-86
2021/08/19 09:50:15;;;;;;;18.27;4.72;;;;;;;;;;5290874;27;20367;-86
2021/08/19 09:52:44;;;;;;;15.00;4.07;;;;;;;;;;5291973;27;20013;-86
2021/08/19 09:55:20;;;;;;;15.73;4.53;;;;;;;;;;5294683;27;20053;-86
2021/08/19 09:57:51;;;;;;;18.77;5.03;;;;;;;;;;5293164;27;20027;-86
2021/08/19 10:00:28;;;;;;;18.62;4.90;;;;;;;;;;5293085;27;20091;-86
2021/08/19 10:03:11;;;;;;;13.75;4.72;;;;;;;;;;5293149;27;20053;-86
2021/08/19 10:05:40;;;;;;;14.32;4.62;;;;;;;;;;5296182;27;20367;-86
2021/08/19 10:08:09;;;;;;;17.20;4.80;;;;;;;;;;5296512;27;20059;-86
2021/08/19 10:10:37;;;;;;;29.37;5.32;;;;;;;;;;5292555;27;20041;-86
2021/08/19 10:13:06;;;;;;;14.80;4.30;;;;;;;;;;5295066;27;20045;-86
2021/08/19 10:15:37;;;;;;;24.50;5.15;;;;;;;;;;5295095;27;20529;-86
2021/08/19 10:18:06;;;;;;;14.13;4.37;;;;;;;;;;5296987;27;20032;-87
2021/08/19 10:20:39;;;;;;;18.98;4.80;;;;;;;;;;5276292;27;20048;-86
2021/08/19 10:23:09;;;;;;;19.23;4.95;;;;;;;;;;5275513;27;20014;-86
2021/08/19 10:25:38;;;;;;;14.38;4.32;;;;;;;;;;5296639;27;20060;-85
2021/08/19 10:28:20;;;;;;;27.33;5.25;;;;;;;;;;5294401;27;20040;-85
2021/08/19 10:30:55;;;;;;;17.52;4.82;;;;;;;;;;5296497;27;20075;-86
2021/08/19 10:33:38;;;;;;;17.00;4.43;;;;;;;;;;5293815;27;20001;-86
2021/08/19 10:36:10;;;;;;;16.67;4.82;;;;;;;;;;5297019;27;20414;-87
2021/08/19 10:38:42;;;;;;;17.48;4.60;;;;;;;;;;5295365;27;20021;-86
2021/08/19 10:41:11;;;;;;;;;;;;;;;;;;5275667;27;20029;-87
2021/08/19 10:43:40;;;;;;;22.33;4.93;;;;;;;;;;5294952;27;19980;-87
2021/08/19 10:46:10;;;;;;;21.58;4.85;;;;;;;;;;5294796;27;20010;-86
2021/08/19 10:48:43;;;;;;;16.50;4.47;;;;;;;;;;5292734;27;20049;-86
2021/08/19 10:51:12;;;;;;;17.67;4.50;;;;;;;;;;5294299;27;20532;-85
2021/08/19 10:53:41;;;;;;;14.75;3.97;;;;;;;;;;5294872;27;20056;-86
2021/08/19 10:56:09;;;;;;;29.87;5.72;;;;;;;;;;5294832;27;20119;-87
2021/08/19 10:58:40;;;;;;;17.52;4.10;;;;;;;;;;5295076;27;20513;-86
2021/08/19 11:01:16;;;;;;;15.95;4.12;;;;;;;;;;5294507;27;20548;-86
2021/08/19 11:03:46;;;;;;;14.38;4.10;;;;;;;;;;5295899;27;20355;-86
2021/08/19 11:06:16;;;;;;;22.42;4.45;;;;;;;;;;5293639;27;20039;-86
2021/08/19 11:08:55;;;;;;;12.65;4.07;;;;;;;;;;5295186;27;20022;-86
2021/08/19 11:11:28;;;;;;;18.00;4.62;;;;;;;;;;5293657;27;20542;-86
2021/08/19 11:13:57;;;;;;;;;;;;;;;;;;5294820;27;20059;-86
2021/08/19 11:16:25;;;;;;;15.48;4.45;;;;;;;;;;5294821;27;19937;-86
2021/08/19 11:19:10;;;;;;;16.75;4.72;;;;;;;;;;5295772;27;20041;-86
2021/08/19 11:21:38;;;;;;;15.27;4.53;;;;;;;;;;5295062;27;20026;-86
2021/08/19 11:24:08;;;;;;;23.85;5.18;;;;;;;;;;5296760;27;20017;-86
2021/08/19 11:26:37;;;;;;;17.15;4.40;;;;;;;;;;5295327;27;20028;-86
2021/08/19 11:29:06;;;;;;;17.75;4.53;;;;;;;;;;5296382;27;20043;-86
2021/08/19 11:31:38;;;;;;;20.35;4.20;;;;;;;;;;5294336;27;20008;-86
2021/08/19 11:34:07;;;;;;;16.23;4.65;;;;;;;;;;5295678;27;20360;-86
2021/08/19 11:36:36;;;;;;;16.67;4.22;;;;;;;;;;5292968;27;20028;-86
2021/08/19 11:39:06;;;;;;;15.77;4.20;;;;;;;;;;5292241;27;20393;-86
2021/08/19 11:41:35;;;;;;;17.15;4.60;;;;;;;;;;5294291;27;20033;-86
2021/08/19 11:44:05;;;;;;;15.15;4.12;;;;;;;;;;5294572;27;20041;-86
2021/08/19 11:46:34;;;;;;;15.68;4.75;;;;;;;;;;5293215;27;20024;-86
2021/08/19 11:49:12;;;;;;;17.75;4.37;;;;;;;;;;5294464;27;20030;-86
2021/08/19 11:51:42;;;;;;;15.10;3.95;;;;;;;;;;5268133;27;20049;-86
2021/08/19 11:54:15;;;;;;;19.73;4.57;;;;;;;;;;5268654;27;20072;-86
2021/08/19 11:56:47;;;;;;;18.60;4.60;;;;;;;;;;5274403;27;20002;-86
2021/08/19 11:59:17;;;;;;;15.32;4.20;;;;;;;;;;5254291;27;20053;-86
2021/08/19 12:01:49;;;;;;;15.55;4.30;;;;;;;;;;5270323;27;20066;-86
2021/08/19 12:04:34;;;;;;;20.05;4.72;;;;;;;;;;5272920;27;20025;-87
2021/08/19 12:07:04;;;;;;;18.35;4.18;;;;;;;;;;5273838;27;20022;-86
2021/08/19 12:09:35;;;;;;;17.67;4.53;;;;;;;;;;5271848;27;20040;-86
2021/08/19 12:12:04;;;;;;;15.93;3.90;;;;;;;;;;5269165;27;20513;-86
2021/08/19 12:14:33;;;;;;;18.02;4.65;;;;;;;;;;5271620;27;20025;-85
2021/08/19 12:17:09;;;;;;;16.08;4.03;;;;;;;;;;5271751;27;20082;-86
2021/08/19 12:19:37;;;;;;;17.27;3.85;;;;;;;;;;5271830;27;20045;-87
2021/08/19 12:22:06;;;;;;;19.40;4.07;;;;;;;;;;5270270;27;20049;-86
2021/08/19 12:24:36;;;;;;;15.13;3.72;;;;;;;;;;5272969;27;20018;-86
2021/08/19 12:27:07;;;;;;;15.70;4.15;;;;;;;;;;5270499;27;20041;-87
2021/08/19 12:29:36;;;;;;;15.13;4.28;;;;;;;;;;5270311;27;20025;-86
2021/08/19 12:32:05;;;;;;;13.27;3.62;;;;;;;;;;5269916;27;20049;-86
2021/08/19 12:34:54;;;;;;;19.50;4.55;;;;;;;;;;5267035;27;20590;-86
2021/08/19 12:37:24;;;;;;;13.60;3.92;;;;;;;;;;5267469;27;20049;-87
2021/08/19 12:39:53;;;;;;;20.20;4.50;;;;;;;;;;5268971;27;20828;-86
2021/08/19 12:42:30;;;;;;;17.77;4.12;;;;;;;;;;5270730;27;20053;-86
2021/08/19 12:45:04;;;;;;;20.52;4.28;;;;;;;;;;5273013;27;20134;-86
2021/08/19 12:47:39;;;;;;;17.70;4.15;;;;;;;;;;5251290;27;20021;-85
2021/08/19 12:50:09;;;;;;;15.38;4.20;;;;;;;;;;5279295;27;20026;-87
2021/08/19 12:52:37;;;;;;;15.68;4.37;;;;;;;;;;5292433;27;20014;-87
2021/08/19 12:55:06;;;;;;;16.45;4.35;;;;;;;;;;5292661;27;20029;-85
2021/08/19 12:57:35;;;;;;;16.92;3.97;;;;;;;;;;5292978;27;20034;-86
2021/08/19 13:00:10;;;;;;;14.85;4.30;;;;;;;;;;5291959;27;20052;-84
2021/08/19 13:02:40;;;;;;;13.80;3.92;;;;;;;;;;5290814;27;20062;-87
2021/08/19 13:05:12;;;;;;;30.00;4.70;;;;;;;;;;5288783;27;20363;-85
2021/08/19 13:07:40;;;;;;;19.12;4.05;;;;;;;;;;5270770;27;20130;-86
2021/08/19 13:10:10;;;;;;;14.80;4.28;;;;;;;;;;5290560;27;20482;-85
2021/08/19 13:12:39;;;;;;;18.10;3.97;;;;;;;;;;5291992;27;20073;-85
2021/08/19 13:15:08;;;;;;;15.65;3.75;;;;;;;;;;5288479;27;20045;-86
2021/08/19 13:17:37;;;;;;;19.62;4.72;;;;;;;;;;5291012;27;20021;-85
2021/08/19 13:20:05;;;;;;;14.82;4.32;;;;;;;;;;5294546;27;20041;-86
2021/08/19 13:22:35;;;;;;;17.12;4.37;;;;;;;;;;5293969;27;20042;-86
2021/08/19 13:25:03;;;;;;;19.08;4.40;;;;;;;;;;5291387;27;20370;-86
2021/08/19 13:27:32;;;;;;;15.70;3.53;;;;;;;;;;5291714;27;20584;-86
2021/08/19 13:30:01;;;;;;;18.83;4.45;;;;;;;;;;5292954;27;20394;-86
2021/08/19 13:32:29;;;;;;;18.20;3.85;;;;;;;;;;5292793;27;20067;-85
2021/08/19 13:34:58;;;;;;;17.10;3.55;;;;;;;;;;5292676;27;20052;-86
2021/08/19 13:37:26;;;;;;;17.05;3.97;;;;;;;;;;5295022;27;20111;-86
2021/08/19 13:39:55;;;;;;;18.52;4.40;;;;;;;;;;5292256;27;20105;-85
2021/08/19 13:42:23;;;;;;;17.55;4.00;;;;;;;;;;5290703;27;20063;-85
2021/08/19 13:44:52;;;;;;;17.25;3.80;;;;;;;;;;5290540;27;20065;-85
2021/08/19 13:47:20;;;;;;;19.08;4.55;;;;;;;;;;5294231;27;20046;-86
2021/08/19 13:49:48;;;;;;;17.80;4.12;;;;;;;;;;5293248;27;20082;-85
2021/08/19 13:52:17;;;;;;;25.30;5.55;;;;;;;;;;5291984;27;20029;-86
2021/08/19 13:54:45;;;;;;;16.00;4.05;;;;;;;;;;5273947;27;20047;-85
2021/08/19 13:57:14;;;;;;;24.25;4.80;;;;;;;;;;5291768;27;20465;-86
2021/08/19 13:59:43;;;;;;;22.33;4.50;;;;;;;;;;5292489;27;20398;-86
2021/08/19 14:02:13;;;;;;;23.80;4.60;;;;;;;;;;5290563;27;20044;-86
2021/08/19 14:04:42;;;;;;;18.95;4.25;;;;;;;;;;5289324;27;20040;-85
2021/08/19 14:07:10;;;;;;;24.40;4.80;;;;;;;;;;5292175;27;20045;-86
2021/08/19 14:09:38;;;;;;;16.08;4.22;;;;;;;;;;5292150;27;20340;-86
2021/08/19 14:12:08;;;;;;;16.08;4.40;;;;;;;;;;5294591;27;20149;-85
2021/08/19 14:14:36;;;;;;;15.70;3.72;;;;;;;;;;5292542;27;20013;-86
2021/08/19 14:17:04;;;;;;;14.07;3.62;;;;;;;;;;5291653;27;20473;-86
2021/08/19 14:19:33;;;;;;;19.77;4.00;;;;;;;;;;5289014;27;20029;-86
2021/08/19 14:22:01;;;;;;;18.73;4.50;;;;;;;;;;5290451;27;20143;-86
2021/08/19 14:24:33;;;;;;;20.55;4.55;;;;;;;;;;5289226;27;20106;-86
2021/08/19 14:27:03;;;;;;;16.70;3.87;;;;;;;;;;5289582;27;20021;-85
2021/08/19 14:29:31;;;;;;;22.37;4.00;;;;;;;;;;5293284;27;20400;-85
2021/08/19 14:32:00;;;;;;;20.05;4.05;;;;;;;;;;5292150;27;20025;-85
2021/08/19 14:34:30;;;;;;;22.15;4.05;;;;;;;;;;5271206;27;20033;-86
2021/08/19 14:36:58;;;;;;;21.42;4.20;;;;;;;;;;5291816;27;20054;-86
2021/08/19 14:39:26;;;;;;;22.02;5.00;;;;;;;;;;5288700;27;20073;-85
2021/08/19 14:41:55;;;;;;;19.77;4.47;;;;;;;;;;5292789;27;20057;-86
2021/08/19 14:44:25;;;;;;;24.17;4.30;;;;;;;;;;5290466;27;20006;-85
2021/08/19 14:46:55;;;;;;;13.62;3.62;;;;;;;;;;5290705;27;20059;-86
2021/08/19 14:49:23;;;;;;;25.75;4.80;;;;;;;;;;5290272;27;20084;-86
2021/08/19 14:51:52;;;;;;;19.90;4.00;;;;;;;;;;5289170;27;20072;-85
2021/08/19 14:54:20;;;;;;;17.15;4.03;;;;;;;;;;5289044;27;20064;-85
2021/08/19 14:56:50;;;;;;;24.10;4.75;;;;;;;;;;5291636;27;20473;-86
2021/08/19 14:59:19;;;;;;;24.27;4.78;;;;;;;;;;5291127;27;20021;-85
2021/08/19 15:01:47;;;;;;;19.15;3.97;;;;;;;;;;5287257;27;20045;-86
2021/08/19 15:04:16;;;;;;;17.80;4.03;;;;;;;;;;5290109;27;20238;-86
2021/08/19 15:06:45;;;;;;;21.70;4.43;;;;;;;;;;5292925;27;20024;-86
2021/08/19 15:09:14;;;;;;;21.73;4.53;;;;;;;;;;5291499;27;20064;-87
2021/08/19 15:11:43;;;;;;;21.45;4.35;;;;;;;;;;5292671;27;20398;-85
2021/08/19 15:14:12;;;;;;;16.95;3.45;;;;;;;;;;5289798;27;20079;-86
2021/08/19 15:16:41;;;;;;;24.02;4.97;;;;;;;;;;5291998;27;20076;-86
2021/08/19 15:19:10;;;;;;;18.83;3.67;;;;;;;;;;5290822;27;20433;-86
2021/08/19 15:21:39;;;;;;;19.25;3.95;;;;;;;;;;5291472;27;20013;-85
2021/08/19 15:24:11;;;;;;;17.55;3.78;;;;;;;;;;5290598;27;20028;-85
2021/08/19 15:26:40;;;;;;;22.35;4.55;;;;;;;;;;5289342;27;20044;-86
2021/08/19 15:29:09;;;;;;;22.83;4.70;;;;;;;;;;5288668;27;20080;-87
2021/08/19 15:31:38;;;;;;;19.92;4.35;;;;;;;;;;5288095;27;20056;-87
2021/08/19 15:34:07;;;;;;;23.10;4.55;;;;;;;;;;5263932;27;20069;-86
2021/08/19 15:36:35;;;;;;;24.63;4.57;;;;;;;;;;5265075;27;20041;-86
2021/08/19 15:39:07;;;;;;;18.70;4.55;;;;;;;;;;5284752;27;20029;-86
2021/08/19 15:41:35;;;;;;;21.80;4.57;;;;;;;;;;5285669;27;20080;-86
2021/08/19 15:44:04;;;;;;;22.10;4.57;;;;;;;;;;5287519;27;20021;-86
2021/08/19 15:46:34;;;;;;;23.23;5.10;;;;;;;;;;5285052;27;20017;-85
2021/08/19 15:49:02;;;;;;;25.42;5.30;;;;;;;;;;5288316;27;20073;-85
2021/08/19 15:51:31;;;;;;;21.27;4.65;;;;;;;;;;5285470;27;20067;-86
2021/08/19 15:53:59;;;;;;;18.95;5.10;;;;;;;;;;5265260;27;20021;-86
2021/08/19 15:56:27;;;;;;;24.23;4.93;;;;;;;;;;5250071;27;20017;-85
2021/08/19 15:58:56;;;;;;;24.58;5.45;;;;;;;;;;5289064;27;20101;-85
2021/08/19 16:01:24;;;;;;;17.10;4.03;;;;;;;;;;5287745;27;20519;-85
2021/08/19 16:03:53;;;;;;;21.60;5.97;;;;;;;;;;5286394;27;21363;-86
2021/08/19 16:06:22;;;;;;;23.75;4.95;;;;;;;;;;5283485;27;20020;-85
2021/08/19 16:08:50;;;;;;;25.85;5.80;;;;;;;;;;5287869;27;20074;-85
2021/08/19 16:11:19;;;;;;;21.73;4.62;;;;;;;;;;5285559;27;20025;-86
2021/08/19 16:13:47;;;;;;;36.80;9.15;;;;;;;;;;5268456;27;20021;-86
2021/08/19 16:16:16;;;;;;;26.10;10.85;;;;;;;;;;5288089;27;20052;-86
2021/08/19 16:18:44;;;;;;;21.45;6.20;;;;;;;;;;5287219;27;20432;-86
2021/08/19 16:21:13;;;;;;;25.75;10.85;;;;;;;;;;5266680;27;20124;-86
2021/08/19 16:23:41;;;;;;;21.05;7.65;;;;;;;;;;5288819;27;20017;-85
2021/08/19 16:26:10;;;;;;;32.97;21.77;;;;;;;;;;5286706;27;20119;-86
2021/08/19 16:28:40;;;;;;;31.37;13.65;;;;;;;;;;5264419;27;20014;-86
2021/08/19 16:31:09;;;;;;;38.55;34.70;;;;;;;;;;5250079;27;20018;-86
2021/08/19 16:33:38;;;;;;;34.45;24.08;;;;;;;;;;5284163;27;20536;-85
2021/08/19 16:36:11;;;;;;;30.02;15.93;;;;;;;;;;5267067;27;20112;-86
2021/08/19 16:38:47;;;;;;;21.70;9.45;;;;;;;;;;5286265;27;20024;-85
2021/08/19 16:41:16;;;;;;;26.65;8.18;;;;;;;;;;5284985;27;20021;-86
2021/08/19 16:43:44;;;;;;;22.45;12.13;;;;;;;;;;5286954;27;20047;-86
2021/08/19 16:46:13;;;;;;;28.87;10.98;;;;;;;;;;5286290;27;20052;-85
2021/08/19 16:48:41;;;;;;;28.58;7.85;;;;;;;;;;5287088;27;20027;-86
2021/08/19 16:51:10;;;;;;;30.80;11.93;;;;;;;;;;5263190;27;20077;-86
2021/08/19 16:53:38;;;;;;;25.67;9.18;;;;;;;;;;5266509;27;20038;-86
2021/08/19 16:56:07;;;;;;;21.48;6.87;;;;;;;;;;5263732;27;20730;-85
2021/08/19 16:58:35;;;;;;;25.05;8.30;;;;;;;;;;5263392;27;20029;-86
2021/08/19 17:01:17;;;;;;;40.33;26.05;;;;;;;;;;5266731;27;20013;-85
2021/08/19 17:03:46;;;;;;;26.83;20.95;;;;;;;;;;5267251;27;20321;-85
2021/08/19 17:06:15;;;;;;;26.02;14.82;;;;;;;;;;5264860;27;20021;-86
2021/08/19 17:08:46;;;;;;;23.27;11.12;;;;;;;;;;5269182;27;20070;-85
2021/08/19 17:11:15;;;;;;;24.37;10.15;;;;;;;;;;5268359;27;20026;-85
2021/08/19 17:13:43;;;;;;;31.45;16.10;;;;;;;;;;5267160;27;20082;-85
2021/08/19 17:16:11;;;;;;;35.60;28.90;;;;;;;;;;5268355;27;20332;-85
2021/08/19 17:18:43;;;;;;;62.33;57.35;;;;;;;;;;5269894;27;20044;-85
2021/08/19 17:21:11;;;;;;;29.33;20.83;;;;;;;;;;5265543;27;20029;-85
2021/08/19 17:23:40;;;;;;;32.50;26.75;;;;;;;;;;5269409;27;20087;-85
2021/08/19 17:26:08;;;;;;;58.80;53.55;;;;;;;;;;5269166;27;20051;-85
2021/08/19 17:28:36;;;;;;;65.93;60.72;;;;;;;;;;5272048;27;20513;-85
2021/08/19 17:31:05;;;;;;;104.87;95.55;;;;;;;;;;5271734;27;20029;-86
2021/08/19 17:33:34;;;;;;;77.57;71.80;;;;;;;;;;5270800;27;20053;-85
2021/08/19 17:36:03;;;;;;;128.90;120.65;;;;;;;;;;5270916;27;20028;-85
2021/08/19 17:38:32;;;;;;;135.32;127.32;;;;;;;;;;5271140;27;20407;-85
2021/08/19 17:41:00;;;;;;;188.48;177.07;;;;;;;;;;5269811;27;20030;-85
2021/08/19 17:43:29;;;;;;;249.55;230.75;;;;;;;;;;5271693;27;20446;-85
2021/08/19 17:46:00;;;;;;;170.48;156.23;;;;;;;;;;5271075;27;20108;-85
2021/08/19 17:48:28;;;;;;;92.45;82.95;;;;;;;;;;5271977;27;20040;-85
2021/08/19 17:50:57;;;;;;;96.00;72.28;;;;;;;;;;5270145;27;20080;-85
2021/08/19 17:53:26;;;;;;;95.57;85.03;;;;;;;;;;5271336;27;20021;-85
2021/08/19 17:55:54;;;;;;;112.82;100.85;;;;;;;;;;5271475;27;20060;-86
2021/08/19 17:58:23;;;;;;;89.13;72.65;;;;;;;;;;5267898;27;20431;-86
2021/08/19 18:00:51;;;;;;;94.70;77.18;;;;;;;;;;5269502;27;20421;-85
2021/08/19 18:03:20;;;;;;;91.93;77.37;;;;;;;;;;5271496;27;20030;-85
2021/08/19 18:05:49;;;;;;;117.47;92.90;;;;;;;;;;5273158;27;20052;-85
2021/08/19 18:08:17;;;;;;;114.65;102.20;;;;;;;;;;5268919;27;20049;-86
2021/08/19 18:10:46;;;;;;;142.57;115.70;;;;;;;;;;5271018;27;20025;-85
2021/08/19 18:13:14;;;;;;;174.80;117.22;;;;;;;;;;5273303;27;20045;-85